createdAt,value
2017-05-08T00:00:08.254Z,43.80
2017-05-08T00:02:36.591Z,46.90
2017-05-08T00:05:04.528Z,43.04
2017-05-08T00:07:32.079Z,46.22
2017-05-08T00:10:00.041Z,41.96
2017-05-08T00:12:27.976Z,40.78
2017-05-08T00:14:55.940Z,40.42
2017-05-08T00:17:23.932Z,41.20
2017-05-08T00:19:52.241Z,42.92
2017-05-08T00:22:20.191Z,39.48
2017-05-08T00:24:47.760Z,37.76
2017-05-08T00:27:15.706Z,38.74
2017-05-08T00:29:44.047Z,36.76
2017-05-08T00:32:12.026Z,39.30
2017-05-08T00:34:39.984Z,38.62
2017-05-08T00:37:07.916Z,39.22
2017-05-08T00:39:35.881Z,40.62
2017-05-08T00:42:04.188Z,37.22
2017-05-08T00:44:32.145Z,37.38
2017-05-08T00:47:00.112Z,36.02
2017-05-08T00:49:28.053Z,37.86
2017-05-08T00:51:56.359Z,38.28
2017-05-08T00:54:24.320Z,36.84
2017-05-08T00:56:52.628Z,36.64
2017-05-08T00:59:20.559Z,37.14
2017-05-08T01:01:48.545Z,36.88
2017-05-08T01:04:16.488Z,36.42
2017-05-08T01:06:44.429Z,34.80
2017-05-08T01:09:12.392Z,36.72
2017-05-08T01:11:40.352Z,33.60
2017-05-08T01:14:08.295Z,33.58
2017-05-08T01:16:36.259Z,34.26
2017-05-08T01:19:04.220Z,33.50
2017-05-08T01:21:32.528Z,31.98
2017-05-08T01:24:00.497Z,30.44
2017-05-08T01:26:28.444Z,32.64
2017-05-08T01:28:56.749Z,30.44
2017-05-08T01:31:24.879Z,30.44
2017-05-08T01:33:53.244Z,30.88
2017-05-08T01:36:21.184Z,32.10
2017-05-08T01:38:49.143Z,32.30
2017-05-08T01:41:17.090Z,32.42
2017-05-08T01:43:45.395Z,32.70
2017-05-08T01:46:13.351Z,30.70
2017-05-08T01:48:41.290Z,28.38
2017-05-08T01:51:09.599Z,31.66
2017-05-08T01:53:37.564Z,29.38
2017-05-08T01:56:05.501Z,27.80
2017-05-08T01:58:33.457Z,27.76
2017-05-08T02:01:01.457Z,28.60
2017-05-08T02:03:29.776Z,29.84
2017-05-08T02:05:57.721Z,27.64
2017-05-08T02:08:25.684Z,27.34
2017-05-08T02:10:53.625Z,26.04
2017-05-08T02:13:21.551Z,27.40
2017-05-08T02:15:49.512Z,25.04
2017-05-08T02:18:17.449Z,23.70
2017-05-08T02:20:45.755Z,25.20
2017-05-08T02:23:13.732Z,23.76
2017-05-08T02:25:41.660Z,21.72
2017-05-08T02:28:09.631Z,21.52
2017-05-08T02:30:37.592Z,23.10
2017-05-08T02:33:05.539Z,23.30
2017-05-08T02:35:33.472Z,22.48
2017-05-08T02:38:01.435Z,21.78
2017-05-08T02:40:29.740Z,23.10
2017-05-08T02:42:57.680Z,23.08
2017-05-08T02:45:26.011Z,21.72
2017-05-08T02:47:53.956Z,22.12
2017-05-08T02:50:21.893Z,22.92
2017-05-08T02:52:50.227Z,21.86
2017-05-08T02:55:18.160Z,21.82
2017-05-08T02:57:45.695Z,18.86
2017-05-08T03:00:13.271Z,20.40
2017-05-08T03:02:41.605Z,21.34
2017-05-08T03:05:09.539Z,19.86
2017-05-08T03:07:37.512Z,20.94
2017-05-08T03:10:05.447Z,20.60
2017-05-08T03:12:33.756Z,19.48
2017-05-08T03:15:01.720Z,21.10
2017-05-08T03:17:29.664Z,20.60
2017-05-08T03:19:57.604Z,22.80
2017-05-08T03:22:25.564Z,21.82
2017-05-08T03:24:53.505Z,20.20
2017-05-08T03:27:21.044Z,22.02
2017-05-08T03:29:48.606Z,21.70
2017-05-08T03:32:16.915Z,22.50
2017-05-08T03:34:44.456Z,22.38
2017-05-08T03:37:12.416Z,22.56
2017-05-08T03:39:40.728Z,23.30
2017-05-08T03:42:08.648Z,21.88
2017-05-08T03:44:36.975Z,24.04
2017-05-08T03:47:04.916Z,22.76
2017-05-08T03:49:32.848Z,22.44
2017-05-08T03:52:00.812Z,22.14
2017-05-08T03:54:28.744Z,21.78
2017-05-08T03:56:56.675Z,22.80
2017-05-08T03:59:25.010Z,23.06
2017-05-08T04:01:52.944Z,25.34
2017-05-08T04:04:21.250Z,24.20
2017-05-08T04:06:49.213Z,26.04
2017-05-08T04:09:17.152Z,26.18
2017-05-08T04:11:45.455Z,24.56
2017-05-08T04:14:13.025Z,24.84
2017-05-08T04:16:40.966Z,27.36
2017-05-08T04:19:09.280Z,27.06
2017-05-08T04:21:37.239Z,27.16
2017-05-08T04:24:05.177Z,27.76
2017-05-08T04:26:33.502Z,27.66
2017-05-08T04:29:01.461Z,26.52
2017-05-08T04:31:29.410Z,27.70
2017-05-08T04:33:57.372Z,28.26
2017-05-08T04:36:25.693Z,25.50
2017-05-08T04:38:53.636Z,26.94
2017-05-08T04:41:21.572Z,26.10
2017-05-08T04:43:49.543Z,26.76
2017-05-08T04:46:17.489Z,25.72
2017-05-08T04:48:45.424Z,27.98
2017-05-08T04:51:13.387Z,28.28
2017-05-08T04:53:41.325Z,25.72
2017-05-08T04:56:09.284Z,24.52
2017-05-08T04:58:37.241Z,25.22
2017-05-08T05:01:05.180Z,23.30
2017-05-08T05:03:32.713Z,25.12
2017-05-08T05:06:00.664Z,26.04
2017-05-08T05:08:28.980Z,23.52
2017-05-08T05:10:56.913Z,27.84
2017-05-08T05:13:24.867Z,24.22
2017-05-08T05:15:52.808Z,28.12
2017-05-08T05:18:20.347Z,24.50
2017-05-08T05:20:48.307Z,26.02
2017-05-08T05:23:16.253Z,25.72
2017-05-08T05:25:44.184Z,26.58
2017-05-08T05:28:12.148Z,28.60
2017-05-08T05:30:40.089Z,29.80
2017-05-08T05:33:07.627Z,31.40
2017-05-08T05:35:35.192Z,29.16
2017-05-08T05:38:03.587Z,30.18
2017-05-08T05:40:31.507Z,34.52
2017-05-08T05:42:59.477Z,33.10
2017-05-08T05:45:27.471Z,37.14
2017-05-08T05:47:55.420Z,35.06
2017-05-08T05:50:23.388Z,34.54
2017-05-08T05:52:51.323Z,37.46
2017-05-08T05:55:19.263Z,37.14
2017-05-08T05:57:47.600Z,38.86
2017-05-08T06:00:15.544Z,38.94
2017-05-08T06:02:43.485Z,35.84
2017-05-08T06:05:11.833Z,36.50
2017-05-08T06:07:39.776Z,35.42
2017-05-08T06:10:07.721Z,36.06
2017-05-08T06:12:35.684Z,38.58
2017-05-08T06:15:03.623Z,35.26
2017-05-08T06:17:31.568Z,37.06
2017-05-08T06:19:59.916Z,33.72
2017-05-08T06:22:27.850Z,35.40
2017-05-08T06:24:55.792Z,37.08
2017-05-08T06:27:23.751Z,37.70
2017-05-08T06:29:51.696Z,37.00
2017-05-08T06:32:19.631Z,39.22
2017-05-08T06:34:47.963Z,36.28
2017-05-08T06:37:15.900Z,39.18
2017-05-08T06:39:43.434Z,37.46
2017-05-08T06:42:11.399Z,37.04
2017-05-08T06:44:39.337Z,39.92
2017-05-08T06:47:07.275Z,40.00
2017-05-08T06:49:35.241Z,39.94
2017-05-08T06:52:03.178Z,39.78
2017-05-08T06:54:31.121Z,39.28
2017-05-08T06:56:59.079Z,36.98
2017-05-08T06:59:27.012Z,40.80
2017-05-08T07:01:55.319Z,37.26
2017-05-08T07:04:23.400Z,38.66
2017-05-08T07:06:51.336Z,39.42
2017-05-08T07:09:19.653Z,37.22
2017-05-08T07:11:47.216Z,39.56
2017-05-08T07:14:15.151Z,40.52
2017-05-08T07:16:43.456Z,41.04
2017-05-08T07:19:11.416Z,40.94
2017-05-08T07:21:39.352Z,38.46
2017-05-08T07:24:07.660Z,40.98
2017-05-08T07:26:35.224Z,43.92
2017-05-08T07:29:03.163Z,39.20
2017-05-08T07:31:31.469Z,38.50
2017-05-08T07:33:59.042Z,40.30
2017-05-08T07:36:27.021Z,39.10
2017-05-08T07:38:54.556Z,38.52
2017-05-08T07:41:22.520Z,39.66
2017-05-08T07:43:50.468Z,37.20
2017-05-08T07:46:18.423Z,37.22
2017-05-08T07:48:46.379Z,36.78
2017-05-08T07:51:14.317Z,36.16
2017-05-08T07:53:41.859Z,35.68
2017-05-08T07:56:10.239Z,33.94
2017-05-08T07:58:38.175Z,34.36
2017-05-08T08:01:06.112Z,35.96
2017-05-08T08:03:34.080Z,37.48
2017-05-08T08:06:02.018Z,37.56
2017-05-08T08:08:29.588Z,36.94
2017-05-08T08:10:57.561Z,36.90
2017-05-08T08:13:25.500Z,40.34
2017-05-08T08:15:53.439Z,38.10
2017-05-08T08:18:21.404Z,37.12
2017-05-08T08:20:49.348Z,40.80
2017-05-08T08:23:17.288Z,37.52
2017-05-08T08:25:45.627Z,39.96
2017-05-08T08:28:13.569Z,40.56
2017-05-08T08:30:41.107Z,45.92
2017-05-08T08:33:09.449Z,42.24
2017-05-08T08:35:37.383Z,39.94
2017-05-08T08:38:05.341Z,43.70
2017-05-08T08:40:33.304Z,41.26
2017-05-08T08:43:01.245Z,42.22
2017-05-08T08:45:29.196Z,40.78
2017-05-08T08:47:57.164Z,47.18
2017-05-08T08:50:25.100Z,42.38
2017-05-08T08:52:53.043Z,40.94
2017-05-08T08:55:20.621Z,41.32
2017-05-08T08:57:48.560Z,39.90
2017-05-08T09:00:16.863Z,38.66
2017-05-08T09:02:44.828Z,40.74
2017-05-08T09:05:13.136Z,38.86
2017-05-08T09:07:41.161Z,42.06
2017-05-08T09:10:08.724Z,41.84
2017-05-08T09:12:37.041Z,39.42
2017-05-08T09:15:04.971Z,41.06
2017-05-08T09:17:32.535Z,39.02
2017-05-08T09:20:00.853Z,38.36
2017-05-08T09:22:28.786Z,38.86
2017-05-08T09:24:57.140Z,40.22
2017-05-08T09:27:25.066Z,40.34
2017-05-08T09:29:52.612Z,40.34
2017-05-08T09:32:20.577Z,41.10
2017-05-08T09:34:48.515Z,37.52
2017-05-08T09:37:16.456Z,37.76
2017-05-08T09:39:44.416Z,38.38
2017-05-08T09:42:12.362Z,39.86
2017-05-08T09:44:40.303Z,38.04
2017-05-08T09:47:08.284Z,39.10
2017-05-08T09:49:36.594Z,39.60
2017-05-08T09:52:04.535Z,37.06
2017-05-08T09:54:32.863Z,38.18
2017-05-08T09:57:00.796Z,37.36
2017-05-08T09:59:28.739Z,37.76
2017-05-08T10:01:56.703Z,35.32
2017-05-08T10:04:24.608Z,40.80
2017-05-08T10:06:52.591Z,33.98
2017-05-08T10:09:20.159Z,37.34
2017-05-08T10:11:48.096Z,36.10
2017-05-08T10:14:15.640Z,34.52
2017-05-08T10:16:43.608Z,35.76
2017-05-08T10:19:11.561Z,35.12
2017-05-08T10:21:39.508Z,38.58
2017-05-08T10:24:07.473Z,34.24
2017-05-08T10:26:35.416Z,34.20
2017-05-08T10:29:03.361Z,33.54
2017-05-08T10:31:31.320Z,31.50
2017-05-08T10:33:58.860Z,32.48
2017-05-08T10:36:26.827Z,32.58
2017-05-08T10:38:54.805Z,31.78
2017-05-08T10:41:22.747Z,33.56
2017-05-08T10:43:50.315Z,31.04
2017-05-08T10:46:18.280Z,32.90
2017-05-08T10:48:45.844Z,33.42
2017-05-08T10:51:13.804Z,34.92
2017-05-08T10:53:41.744Z,36.20
2017-05-08T10:56:09.699Z,33.80
2017-05-08T10:58:37.644Z,33.36
2017-05-08T11:01:05.584Z,35.62
2017-05-08T11:03:33.547Z,35.32
2017-05-08T11:06:01.533Z,36.52
2017-05-08T11:08:29.476Z,36.90
2017-05-08T11:10:57.802Z,39.56
2017-05-08T11:13:31.524Z,38.54
2017-05-08T11:15:59.492Z,39.54
2017-05-08T11:18:27.432Z,39.60
2017-05-08T11:20:55.381Z,44.34
2017-05-08T11:23:23.345Z,38.38
2017-05-08T11:25:51.308Z,40.82
2017-05-08T11:28:19.628Z,41.94
2017-05-08T11:30:47.592Z,39.02
2017-05-08T11:33:15.536Z,41.44
2017-05-08T11:35:43.086Z,39.44
2017-05-08T11:38:11.424Z,38.04
2017-05-08T11:40:39.365Z,40.80
2017-05-08T11:43:07.316Z,39.70
2017-05-08T11:48:12.078Z,39.88
2017-05-08T11:50:40.031Z,41.86
2017-05-08T11:53:07.965Z,42.54
2017-05-08T11:55:35.508Z,39.82
2017-05-08T11:58:03.464Z,40.84
2017-05-08T12:00:31.406Z,40.80
2017-05-08T12:02:59.346Z,35.44
2017-05-08T12:05:27.317Z,38.66
2017-05-08T12:07:55.251Z,37.28
2017-05-08T12:10:23.184Z,36.82
2017-05-08T12:12:51.155Z,35.44
2017-05-08T12:15:19.097Z,34.86
2017-05-08T12:17:46.648Z,35.42
2017-05-08T12:20:14.605Z,34.56
2017-05-08T12:22:42.547Z,34.50
2017-05-08T12:25:10.484Z,35.42
2017-05-08T12:27:38.816Z,34.92
2017-05-08T12:30:06.773Z,34.22
2017-05-08T12:32:34.720Z,33.92
2017-05-08T12:35:02.283Z,35.30
2017-05-08T12:37:30.253Z,33.14
2017-05-08T12:39:58.205Z,31.28
2017-05-08T12:42:26.503Z,34.70
2017-05-08T12:44:54.071Z,35.70
2017-05-08T12:47:21.620Z,33.24
2017-05-08T12:49:49.571Z,31.92
2017-05-08T12:52:17.903Z,35.14
2017-05-08T12:54:45.840Z,33.66
2017-05-08T12:57:13.775Z,30.10
2017-05-08T12:59:41.747Z,31.82
2017-05-08T13:02:09.284Z,33.18
2017-05-08T13:04:37.212Z,30.60
2017-05-08T13:07:05.178Z,29.14
2017-05-08T13:09:33.112Z,32.04
2017-05-08T13:12:01.056Z,29.90
2017-05-08T13:14:29.015Z,31.24
2017-05-08T13:16:56.947Z,29.10
2017-05-08T13:19:24.892Z,29.80
2017-05-08T13:21:52.857Z,31.68
2017-05-08T13:24:20.400Z,28.42
2017-05-08T13:26:48.332Z,28.84
2017-05-08T13:29:16.295Z,29.06
2017-05-08T13:31:44.228Z,30.32
2017-05-08T13:34:12.172Z,32.66
2017-05-08T13:36:40.127Z,29.70
2017-05-08T13:39:08.067Z,31.40
2017-05-08T13:41:36.013Z,29.12
2017-05-08T13:44:03.976Z,29.82
2017-05-08T13:46:31.511Z,27.78
2017-05-08T13:48:59.443Z,29.26
2017-05-08T13:51:27.408Z,27.24
2017-05-08T13:53:54.940Z,28.90
2017-05-08T13:56:22.893Z,29.28
2017-05-08T13:58:50.828Z,29.26
2017-05-08T14:01:18.756Z,26.98
2017-05-08T14:03:47.212Z,27.04
2017-05-08T14:06:15.149Z,27.86
2017-05-08T14:08:43.085Z,27.52
2017-05-08T14:11:11.412Z,27.74
2017-05-08T14:13:39.349Z,25.60
2017-05-08T14:16:07.287Z,27.12
2017-05-08T14:18:35.260Z,26.90
2017-05-08T14:21:03.203Z,30.02
2017-05-08T14:23:31.144Z,28.54
2017-05-08T14:25:58.703Z,26.28
2017-05-08T14:28:26.252Z,27.86
2017-05-08T14:30:54.183Z,28.26
2017-05-08T14:33:22.152Z,29.62
2017-05-08T14:35:50.096Z,28.00
2017-05-08T14:38:18.027Z,27.98
2017-05-08T14:40:46.008Z,25.66
2017-05-08T14:43:13.543Z,26.16
2017-05-08T14:45:41.487Z,28.08
2017-05-08T14:48:09.453Z,26.62
2017-05-08T14:50:37.404Z,24.82
2017-05-08T14:53:05.336Z,27.02
2017-05-08T14:55:33.296Z,26.52
2017-05-08T14:58:01.604Z,26.48
2017-05-08T15:00:29.544Z,27.78
2017-05-08T15:02:57.880Z,27.52
2017-05-08T15:05:25.821Z,29.40
2017-05-08T15:07:53.764Z,29.12
2017-05-08T15:10:22.091Z,27.44
2017-05-08T15:12:50.032Z,30.00
2017-05-08T15:15:17.963Z,26.98
2017-05-08T15:17:45.928Z,25.88
2017-05-08T15:20:13.868Z,27.16
2017-05-08T15:22:41.812Z,27.98
2017-05-08T15:25:09.383Z,29.00
2017-05-08T15:27:37.316Z,26.12
2017-05-08T15:30:05.620Z,27.66
2017-05-08T15:32:33.612Z,26.68
2017-05-08T15:35:01.557Z,29.70
2017-05-08T15:37:29.092Z,27.94
2017-05-08T15:39:57.433Z,29.38
2017-05-08T15:42:25.386Z,28.88
2017-05-08T15:44:53.350Z,25.64
2017-05-08T15:47:21.325Z,29.08
2017-05-08T15:49:48.868Z,28.32
2017-05-08T15:52:16.840Z,27.24
2017-05-08T15:54:44.764Z,27.46
2017-05-08T15:57:12.709Z,27.86
2017-05-08T15:59:40.276Z,28.58
2017-05-08T16:02:08.212Z,26.56
2017-05-08T16:04:36.533Z,26.44
2017-05-08T16:07:04.472Z,25.14
2017-05-08T16:09:32.410Z,27.42
2017-05-08T16:12:00.744Z,26.70
2017-05-08T16:14:28.679Z,26.06
2017-05-08T16:16:56.619Z,27.74
2017-05-08T16:19:24.952Z,25.00
2017-05-08T16:21:52.892Z,25.24
2017-05-08T16:24:20.837Z,23.42
2017-05-08T16:26:48.815Z,23.52
2017-05-08T16:29:17.188Z,24.24
2017-05-08T16:31:44.720Z,24.88
2017-05-08T16:34:12.684Z,26.32
2017-05-08T16:36:40.637Z,24.00
2017-05-08T16:39:08.613Z,23.98
2017-05-08T16:41:36.612Z,26.70
2017-05-08T16:44:04.576Z,24.42
2017-05-08T16:46:32.536Z,25.78
2017-05-08T16:49:00.495Z,25.70
2017-05-08T16:51:28.482Z,26.98
2017-05-08T16:53:56.512Z,27.62
2017-05-08T16:56:24.587Z,25.34
2017-05-08T16:58:52.549Z,24.44
2017-05-08T17:01:20.538Z,26.76
2017-05-08T17:03:48.106Z,24.70
2017-05-08T17:06:16.078Z,25.66
2017-05-08T17:08:44.122Z,28.72
2017-05-08T17:11:12.100Z,27.22
2017-05-08T17:13:40.193Z,28.02
2017-05-08T17:16:08.117Z,26.58
2017-05-08T17:18:36.112Z,24.52
2017-05-08T17:21:03.716Z,27.40
2017-05-08T17:23:31.653Z,26.60
2017-05-08T17:25:59.246Z,27.60
2017-05-08T17:28:27.277Z,27.56
2017-05-08T17:30:54.916Z,28.68
2017-05-08T17:33:22.931Z,27.42
2017-05-08T17:35:51.026Z,30.02
2017-05-08T17:38:19.201Z,29.98
2017-05-08T17:40:47.364Z,25.80
2017-05-08T17:43:15.820Z,26.30
2017-05-08T17:45:44.266Z,26.82
2017-05-08T17:48:13.033Z,29.06
2017-05-08T17:50:41.699Z,27.28
2017-05-08T17:53:10.319Z,27.16
2017-05-08T17:55:39.312Z,29.30
2017-05-08T17:58:08.042Z,28.54
2017-05-08T18:00:36.435Z,29.62
2017-05-08T18:03:05.289Z,28.72
2017-05-08T18:05:34.196Z,29.76
2017-05-08T18:08:02.657Z,29.18
2017-05-08T18:10:31.552Z,32.40
2017-05-08T18:13:00.421Z,24.88
2017-05-08T18:15:29.370Z,24.32
2017-05-08T18:17:58.421Z,23.20
2017-05-08T18:20:27.322Z,21.76
2017-05-08T18:22:56.255Z,21.56
2017-05-08T18:25:25.835Z,20.64
2017-05-08T18:27:54.776Z,21.12
2017-05-08T18:30:23.721Z,21.94
2017-05-08T18:32:52.742Z,21.12
2017-05-08T18:35:21.720Z,19.06
2017-05-08T18:37:50.269Z,21.32
2017-05-08T18:40:19.356Z,21.74
2017-05-08T18:42:48.816Z,19.54
2017-05-08T18:45:18.164Z,20.46
2017-05-08T18:47:47.506Z,20.54
2017-05-08T18:50:16.592Z,21.24
2017-05-08T18:52:45.878Z,21.42
2017-05-08T18:55:15.199Z,21.28
2017-05-08T18:57:44.153Z,21.52
2017-05-08T19:00:13.456Z,21.62
2017-05-08T19:02:42.765Z,21.58
2017-05-08T19:05:11.351Z,22.50
2017-05-08T19:07:40.666Z,18.96
2017-05-08T19:10:09.710Z,19.76
2017-05-08T19:12:39.095Z,21.46
2017-05-08T19:15:07.799Z,19.22
2017-05-08T19:17:37.610Z,20.80
2017-05-08T19:20:06.596Z,21.08
2017-05-08T19:22:36.717Z,21.28
2017-05-08T19:25:05.704Z,19.30
2017-05-08T19:27:34.582Z,21.02
2017-05-08T19:30:03.626Z,19.20
2017-05-08T19:32:32.669Z,20.90
2017-05-08T19:35:02.024Z,21.52
2017-05-08T19:37:31.130Z,20.76
2017-05-08T19:40:00.521Z,19.38
2017-05-08T19:42:29.479Z,18.28
2017-05-08T19:44:58.536Z,20.62
2017-05-08T19:47:27.760Z,19.88
2017-05-08T19:49:56.717Z,20.76
2017-05-08T19:52:25.843Z,19.96
2017-05-08T19:54:55.266Z,20.94
2017-05-08T19:57:24.288Z,19.04
2017-05-08T19:59:53.933Z,19.42
2017-05-08T20:02:23.212Z,19.04
2017-05-08T20:04:52.192Z,19.16
2017-05-08T20:07:21.864Z,20.66
2017-05-08T20:09:51.849Z,21.62
2017-05-08T20:12:20.811Z,21.62
2017-05-08T20:14:49.886Z,22.68
2017-05-08T20:17:18.837Z,20.52
2017-05-08T20:19:48.119Z,21.34
2017-05-08T20:22:17.102Z,22.88
2017-05-08T20:24:46.458Z,22.82
2017-05-08T20:27:15.821Z,22.78
2017-05-08T20:29:44.782Z,22.30
2017-05-08T20:32:13.722Z,21.78
2017-05-08T20:34:42.783Z,22.26
2017-05-08T20:37:11.721Z,22.36
2017-05-08T20:39:40.623Z,18.58
2017-05-08T20:42:09.592Z,22.30
2017-05-08T20:44:37.889Z,23.96
2017-05-08T20:47:06.174Z,21.34
2017-05-08T20:49:34.795Z,22.34
2017-05-08T20:52:03.338Z,21.04
2017-05-08T20:54:31.442Z,21.30
2017-05-08T20:56:59.868Z,21.54
2017-05-08T20:59:28.141Z,21.56
2017-05-08T21:01:56.220Z,23.52
2017-05-08T21:04:24.221Z,21.96
2017-05-08T21:06:52.458Z,21.58
2017-05-08T21:09:20.440Z,22.90
2017-05-08T21:11:48.422Z,20.94
2017-05-08T21:14:16.361Z,21.24
2017-05-08T21:16:44.300Z,23.92
2017-05-08T21:19:11.859Z,22.64
2017-05-08T21:21:39.397Z,21.76
2017-05-08T21:24:07.333Z,20.94
2017-05-08T21:26:35.301Z,21.56
2017-05-08T21:29:03.248Z,22.62
2017-05-08T21:31:31.547Z,22.82
2017-05-08T21:33:59.120Z,20.95
2017-05-08T21:36:27.053Z,22.52
2017-05-08T21:38:55.353Z,23.32
2017-05-08T21:41:23.320Z,23.18
2017-05-08T21:43:51.252Z,22.80
2017-05-08T21:46:18.800Z,22.22
2017-05-08T21:48:46.760Z,23.33
2017-05-08T21:51:14.700Z,21.72
2017-05-08T21:53:42.641Z,20.90
2017-05-08T21:56:10.959Z,23.30
2017-05-08T21:58:38.906Z,24.10
2017-05-08T22:01:06.840Z,23.66
2017-05-08T22:03:34.812Z,22.20
2017-05-08T22:06:02.356Z,21.14
2017-05-08T22:08:30.308Z,25.43
2017-05-08T22:10:57.872Z,22.58
2017-05-08T22:13:25.831Z,21.22
2017-05-08T22:15:53.839Z,21.18
2017-05-08T22:18:21.788Z,23.32
2017-05-08T22:20:49.724Z,19.93
2017-05-08T22:23:17.684Z,24.44
2017-05-08T22:25:45.620Z,23.63
2017-05-08T22:28:13.957Z,23.06
2017-05-08T22:30:41.912Z,22.08
2017-05-08T22:33:09.844Z,23.54
2017-05-08T22:35:38.143Z,22.92
2017-05-08T22:38:05.709Z,22.00
2017-05-08T22:40:33.651Z,24.42
2017-05-08T22:43:01.593Z,23.08
2017-05-08T22:45:29.546Z,22.32
2017-05-08T22:47:57.480Z,23.08
2017-05-08T22:50:25.779Z,23.60
2017-05-08T22:52:53.736Z,25.34
2017-05-08T22:55:21.703Z,24.25
2017-05-08T22:57:49.234Z,22.52
2017-05-08T23:00:17.189Z,23.00
2017-05-08T23:02:45.119Z,23.56
2017-05-08T23:05:13.055Z,23.58
2017-05-08T23:07:41.459Z,23.30
2017-05-08T23:10:09.404Z,23.02
2017-05-08T23:12:37.708Z,25.18
2017-05-08T23:15:05.659Z,22.20
2017-05-08T23:17:33.964Z,23.26
2017-05-08T23:20:01.921Z,22.48
2017-05-08T23:22:29.860Z,23.38
2017-05-08T23:24:57.785Z,24.48
2017-05-08T23:27:25.739Z,23.46
2017-05-08T23:29:53.672Z,21.82
2017-05-08T23:32:21.212Z,22.94
2017-05-08T23:34:49.272Z,24.22
2017-05-08T23:37:17.220Z,23.58
2017-05-08T23:39:45.154Z,24.30
2017-05-08T23:42:13.483Z,21.90
2017-05-08T23:44:41.436Z,22.04
2017-05-08T23:47:09.351Z,23.96
2017-05-08T23:49:37.308Z,22.78
2017-05-08T23:52:05.236Z,25.78
2017-05-08T23:54:33.231Z,22.60
2017-05-08T23:57:00.779Z,22.80
2017-05-08T23:59:28.708Z,23.04
